Sakura — JG5711 — position and weather

sailwx.info

Track history (hours):
 
Tides and Currents Weather Stations Pressure Air Temp Water Temp Dewpoint Dewpoint Depression Visibility Wind Speed Wind Dir Waves Ship Positions

Sakura

Last reported at 2014-Aug-22 23:32 UTC. Time now 2014-Aug-23 07:29 UTC.
Position N 35°26' E 139°41'.

Length 32 m; draft 3.6 m.

Type: Tug. MMSI: 431101178.

Date/timePositionNaut miles runAvg speedWind from/ knotsBaromVisibWave heightAir tempDewpointWater temp
2014-Aug-22 23:32N 35°26' E 139°41'3 2.7
2014-Aug-22 22:33N 35°27' E 139°44'2 1.7
2014-Aug-22 21:33N 35°28' E 139°42'1 0.7
2014-Aug-22 20:33N 35°28' E 139°43'2 1.6
2014-Aug-22 19:33N 35°27' E 139°43'0 0.1
2014-Aug-22 18:33N 35°26' E 139°43'1 1.5
2014-Aug-22 17:33N 35°26' E 139°41'1 1.4
2014-Aug-22 16:34N 35°27' E 139°39'0 0.0
2014-Aug-22 15:34N 35°27' E 139°39'0 0.0
2014-Aug-22 14:34N 35°27' E 139°39'0 0.0
2014-Aug-22 13:33N 35°27' E 139°39'1 0.8
2014-Aug-22 12:33N 35°27' E 139°40'0 0.1
2014-Aug-22 11:33N 35°27' E 139°40'0 0.0
2014-Aug-22 10:33N 35°27' E 139°40'2 2.3
2014-Aug-22 09:33N 35°26' E 139°43'3 3.1
2014-Aug-22 08:33N 35°27' E 139°40'0 0.2
2014-Aug-22 07:33N 35°27' E 139°39'1 1.4
2014-Aug-22 06:33N 35°27' E 139°41'1 1.3
2014-Aug-22 05:33N 35°27' E 139°40'0 0.0
2014-Aug-22 04:33N 35°27' E 139°40'0 0.0
2014-Aug-22 03:33N 35°27' E 139°40'0 0.0
2014-Aug-22 02:33N 35°27' E 139°40'0 0.0
2014-Aug-22 01:33N 35°27' E 139°40'0 0.0
2014-Aug-22 00:33N 35°27' E 139°40'0 0.0
2014-Aug-21 23:33N 35°27' E 139°40'0 0.0
2014-Aug-21 07:12N 35°27' E 139°40'0 0.0
2014-Aug-21 06:33N 35°27' E 139°40'0 0.0
2014-Aug-21 05:33N 35°27' E 139°40'0 0.0
2014-Aug-21 04:34N 35°27' E 139°40'0 0.0
2014-Aug-21 03:33N 35°27' E 139°40'0 0.0
2014-Aug-21 02:33N 35°27' E 139°40'0 0.0
2014-Aug-21 01:34N 35°27' E 139°40'0 0.0
2014-Aug-21 00:33N 35°27' E 139°40'0 0.0
2014-Aug-20 23:33N 35°27' E 139°40'2 1.8
2014-Aug-20 22:34N 35°28' E 139°42'3 3.1
2014-Aug-20 21:33N 35°26' E 139°45'4 4.4
2014-Aug-20 20:33N 35°27' E 139°40'0 0.0
2014-Aug-20 07:33N 35°27' E 139°40'2 1.7
2014-Aug-20 06:33N 35°28' E 139°42'1 1.3
2014-Aug-20 05:34N 35°27' E 139°40'1 0.9
2014-Aug-20 04:34N 35°27' E 139°39'0 0.0
2014-Aug-20 03:34N 35°27' E 139°39'4 4.0
2014-Aug-20 02:34N 35°30' E 139°43'0 0.1
2014-Aug-20 01:34N 35°29' E 139°43'2 2.2
2014-Aug-20 00:33N 35°30' E 139°46'0 0.3
2014-Aug-19 23:34N 35°30' E 139°46'0 0.0
2014-Aug-19 22:34N 35°30' E 139°46'3 2.9
2014-Aug-19 21:34N 35°29' E 139°43'3 2.7
2014-Aug-19 20:34N 35°27' E 139°40'1 0.1
2014-Aug-19 10:10N 35°27' E 139°40'1 2.0
2014-Aug-19 09:33N 35°26' E 139°41'2 1.5
2014-Aug-19 08:33N 35°27' E 139°42'0 0.0
2014-Aug-19 07:33N 35°27' E 139°42'2 1.6
2014-Aug-19 06:33N 35°26' E 139°41'1 1.5
2014-Aug-19 05:33N 35°27' E 139°39'0 0.3
2014-Aug-19 04:33N 35°27' E 139°40'0 0.2
2014-Aug-19 03:33N 35°27' E 139°40'2 1.5
2014-Aug-19 02:33N 35°27' E 139°41'1 1.4
2014-Aug-19 01:33N 35°27' E 139°40'0 0.2
2014-Aug-19 00:33N 35°27' E 139°40'0 0.0
2014-Aug-18 23:33N 35°27' E 139°40'0 0.0
2014-Aug-18 22:34N 35°27' E 139°40'4 0.2
2014-Aug-17 18:34N 35°29' E 139°45'2 2.1
2014-Aug-17 17:33N 35°27' E 139°43'3 0.3
2014-Aug-17 07:14N 35°27' E 139°40'0 0.0
2014-Aug-17 06:33N 35°27' E 139°40'0 0.0
2014-Aug-17 05:33N 35°27' E 139°40'0 0.0
2014-Aug-17 04:33N 35°27' E 139°40'1 1.4
2014-Aug-17 03:33N 35°28' E 139°41'5 5.2
2014-Aug-17 02:33N 35°31' E 139°46'3 2.9
2014-Aug-17 01:33N 35°28' E 139°48'2 2.0
2014-Aug-17 00:33N 35°29' E 139°46'0 0.0
2014-Aug-16 23:33N 35°29' E 139°46'3 3.3
2014-Aug-16 22:34N 35°28' E 139°42'1 1.5
2014-Aug-16 21:34N 35°26' E 139°43'2 2.5
2014-Aug-16 20:34N 35°27' E 139°40'4 0.4
2014-Aug-16 09:33N 35°29' E 139°45'1 1.1
2014-Aug-16 08:34N 35°28' E 139°46'2 1.6
2014-Aug-16 07:33N 35°28' E 139°44'0 0.1
2014-Aug-16 06:33N 35°28' E 139°44'2 1.6
2014-Aug-16 05:34N 35°29' E 139°43'1 1.1
2014-Aug-16 04:33N 35°29' E 139°42'3 3.3
2014-Aug-16 03:33N 35°28' E 139°46'3 3.0
2014-Aug-16 02:33N 35°27' E 139°42'0 0.0
2014-Aug-16 01:33N 35°27' E 139°42'0 0.0
2014-Aug-16 00:33N 35°27' E 139°42'0 0.0
2014-Aug-15 23:33N 35°27' E 139°42'1 0.7
2014-Aug-15 22:33N 35°26' E 139°42'2 2.2
2014-Aug-15 21:34N 35°27' E 139°40'0 0.0
2014-Aug-14 23:33N 35°27' E 139°39'2 1.9
2014-Aug-14 22:33N 35°28' E 139°42'2 2.3
2014-Aug-14 21:33N 35°27' E 139°44'4 3.9
2014-Aug-14 20:33N 35°24' E 139°41'0 0.4
2014-Aug-14 19:33N 35°24' E 139°41'2 2.0
2014-Aug-14 18:33N 35°26' E 139°42'0 0.0
2014-Aug-14 17:33N 35°26' E 139°42'0 0.1
2014-Aug-14 16:33N 35°26' E 139°42'0 0.0
2014-Aug-14 15:33N 35°26' E 139°42'5 5.3
2014-Aug-14 14:33N 35°30' E 139°46'3 2.6
2014-Aug-14 13:34N 35°28' E 139°44'0 0.0
2014-Aug-14 12:33N 35°28' E 139°44'3 3.2
2014-Aug-14 11:33N 35°25' E 139°42'1 1.3
2014-Aug-14 10:33N 35°25' E 139°41'1 0.8
2014-Aug-14 09:33N 35°26' E 139°42'6 5.7
2014-Aug-14 08:33N 35°30' E 139°47'6 5.8
2014-Aug-14 07:33N 35°28' E 139°40'1 0.9
2014-Aug-14 06:33N 35°27' E 139°40'0 0.0
2014-Aug-14 05:33N 35°27' E 139°40'0 0.0
2014-Aug-14 04:33N 35°27' E 139°40'0 0.0
2014-Aug-14 03:33N 35°27' E 139°40'0 0.0
2014-Aug-14 02:34N 35°27' E 139°40'0 0.0
2014-Aug-14 01:33N 35°27' E 139°40'0 0.0
2014-Aug-14 00:33N 35°27' E 139°40'1 1.3
2014-Aug-13 23:34N 35°26' E 139°41'1 0.7
2014-Aug-13 22:33N 35°26' E 139°42'2 1.9
2014-Aug-13 21:33N 35°27' E 139°40'0 0.0
2014-Aug-13 07:13N 35°27' E 139°40'0 0.0
2014-Aug-13 06:33N 35°27' E 139°40'0 0.0
2014-Aug-13 05:33N 35°27' E 139°40'3 3.4
2014-Aug-13 04:33N 35°29' E 139°43'3 3.2
2014-Aug-13 03:34N 35°31' E 139°46'3 3.3
2014-Aug-13 02:33N 35°28' E 139°44'3 3.4
2014-Aug-13 01:34N 35°31' E 139°46'0 0.0
2014-Aug-13 00:33N 35°31' E 139°46'3 2.5
2014-Aug-12 23:33N 35°29' E 139°47'  
Track history (hours):
 
Tides and Currents Weather Stations Pressure Air Temp Water Temp Dewpoint Dewpoint Depression Visibility Wind Speed Wind Dir Waves Ship Positions

Sakura

Last reported at 2014-Aug-22 23:32 UTC. Time now 2014-Aug-23 07:29 UTC.
Position N 35°26' E 139°41'.

Length 32 m; draft 3.6 m.

Type: Tug. MMSI: 431101178.

Date/timePositionNaut miles runAvg speedWind from/ knotsBaromVisibWave heightAir tempDewpointWater temp
2014-Aug-22 23:32N 35°26' E 139°41'3 2.7
2014-Aug-22 22:33N 35°27' E 139°44'2 1.7
2014-Aug-22 21:33N 35°28' E 139°42'1 0.7
2014-Aug-22 20:33N 35°28' E 139°43'2 1.6
2014-Aug-22 19:33N 35°27' E 139°43'0 0.1
2014-Aug-22 18:33N 35°26' E 139°43'1 1.5
2014-Aug-22 17:33N 35°26' E 139°41'1 1.4
2014-Aug-22 16:34N 35°27' E 139°39'0 0.0
2014-Aug-22 15:34N 35°27' E 139°39'0 0.0
2014-Aug-22 14:34N 35°27' E 139°39'0 0.0
2014-Aug-22 13:33N 35°27' E 139°39'1 0.8
2014-Aug-22 12:33N 35°27' E 139°40'0 0.1
2014-Aug-22 11:33N 35°27' E 139°40'0 0.0
2014-Aug-22 10:33N 35°27' E 139°40'2 2.3
2014-Aug-22 09:33N 35°26' E 139°43'3 3.1
2014-Aug-22 08:33N 35°27' E 139°40'0 0.2
2014-Aug-22 07:33N 35°27' E 139°39'1 1.4
2014-Aug-22 06:33N 35°27' E 139°41'1 1.3
2014-Aug-22 05:33N 35°27' E 139°40'0 0.0
2014-Aug-22 04:33N 35°27' E 139°40'0 0.0
2014-Aug-22 03:33N 35°27' E 139°40'0 0.0
2014-Aug-22 02:33N 35°27' E 139°40'0 0.0
2014-Aug-22 01:33N 35°27' E 139°40'0 0.0
2014-Aug-22 00:33N 35°27' E 139°40'0 0.0
2014-Aug-21 23:33N 35°27' E 139°40'0 0.0
2014-Aug-21 07:12N 35°27' E 139°40'0 0.0
2014-Aug-21 06:33N 35°27' E 139°40'0 0.0
2014-Aug-21 05:33N 35°27' E 139°40'0 0.0
2014-Aug-21 04:34N 35°27' E 139°40'0 0.0
2014-Aug-21 03:33N 35°27' E 139°40'0 0.0
2014-Aug-21 02:33N 35°27' E 139°40'0 0.0
2014-Aug-21 01:34N 35°27' E 139°40'0 0.0
2014-Aug-21 00:33N 35°27' E 139°40'0 0.0
2014-Aug-20 23:33N 35°27' E 139°40'2 1.8
2014-Aug-20 22:34N 35°28' E 139°42'3 3.1
2014-Aug-20 21:33N 35°26' E 139°45'4 4.4
2014-Aug-20 20:33N 35°27' E 139°40'0 0.0
2014-Aug-20 07:33N 35°27' E 139°40'2 1.7
2014-Aug-20 06:33N 35°28' E 139°42'1 1.3
2014-Aug-20 05:34N 35°27' E 139°40'1 0.9
2014-Aug-20 04:34N 35°27' E 139°39'0 0.0
2014-Aug-20 03:34N 35°27' E 139°39'4 4.0
2014-Aug-20 02:34N 35°30' E 139°43'0 0.1
2014-Aug-20 01:34N 35°29' E 139°43'2 2.2
2014-Aug-20 00:33N 35°30' E 139°46'0 0.3
2014-Aug-19 23:34N 35°30' E 139°46'0 0.0
2014-Aug-19 22:34N 35°30' E 139°46'3 2.9
2014-Aug-19 21:34N 35°29' E 139°43'3 2.7
2014-Aug-19 20:34N 35°27' E 139°40'1 0.1
2014-Aug-19 10:10N 35°27' E 139°40'1 2.0
2014-Aug-19 09:33N 35°26' E 139°41'2 1.5
2014-Aug-19 08:33N 35°27' E 139°42'0 0.0
2014-Aug-19 07:33N 35°27' E 139°42'2 1.6
2014-Aug-19 06:33N 35°26' E 139°41'1 1.5
2014-Aug-19 05:33N 35°27' E 139°39'0 0.3
2014-Aug-19 04:33N 35°27' E 139°40'0 0.2
2014-Aug-19 03:33N 35°27' E 139°40'2 1.5
2014-Aug-19 02:33N 35°27' E 139°41'1 1.4
2014-Aug-19 01:33N 35°27' E 139°40'0 0.2
2014-Aug-19 00:33N 35°27' E 139°40'0 0.0
2014-Aug-18 23:33N 35°27' E 139°40'0 0.0
2014-Aug-18 22:34N 35°27' E 139°40'4 0.2
2014-Aug-17 18:34N 35°29' E 139°45'2 2.1
2014-Aug-17 17:33N 35°27' E 139°43'3 0.3
2014-Aug-17 07:14N 35°27' E 139°40'0 0.0
2014-Aug-17 06:33N 35°27' E 139°40'0 0.0
2014-Aug-17 05:33N 35°27' E 139°40'0 0.0
2014-Aug-17 04:33N 35°27' E 139°40'1 1.4
2014-Aug-17 03:33N 35°28' E 139°41'5 5.2
2014-Aug-17 02:33N 35°31' E 139°46'3 2.9
2014-Aug-17 01:33N 35°28' E 139°48'2 2.0
2014-Aug-17 00:33N 35°29' E 139°46'0 0.0
2014-Aug-16 23:33N 35°29' E 139°46'3 3.3
2014-Aug-16 22:34N 35°28' E 139°42'1 1.5
2014-Aug-16 21:34N 35°26' E 139°43'2 2.5
2014-Aug-16 20:34N 35°27' E 139°40'4 0.4
2014-Aug-16 09:33N 35°29' E 139°45'1 1.1
2014-Aug-16 08:34N 35°28' E 139°46'2 1.6
2014-Aug-16 07:33N 35°28' E 139°44'0 0.1
2014-Aug-16 06:33N 35°28' E 139°44'2 1.6
2014-Aug-16 05:34N 35°29' E 139°43'1 1.1
2014-Aug-16 04:33N 35°29' E 139°42'3 3.3
2014-Aug-16 03:33N 35°28' E 139°46'3 3.0
2014-Aug-16 02:33N 35°27' E 139°42'0 0.0
2014-Aug-16 01:33N 35°27' E 139°42'0 0.0
2014-Aug-16 00:33N 35°27' E 139°42'0 0.0
2014-Aug-15 23:33N 35°27' E 139°42'1 0.7
2014-Aug-15 22:33N 35°26' E 139°42'2 2.2
2014-Aug-15 21:34N 35°27' E 139°40'0 0.0
2014-Aug-14 23:33N 35°27' E 139°39'2 1.9
2014-Aug-14 22:33N 35°28' E 139°42'2 2.3
2014-Aug-14 21:33N 35°27' E 139°44'4 3.9
2014-Aug-14 20:33N 35°24' E 139°41'0 0.4
2014-Aug-14 19:33N 35°24' E 139°41'2 2.0
2014-Aug-14 18:33N 35°26' E 139°42'0 0.0
2014-Aug-14 17:33N 35°26' E 139°42'0 0.1
2014-Aug-14 16:33N 35°26' E 139°42'0 0.0
2014-Aug-14 15:33N 35°26' E 139°42'5 5.3
2014-Aug-14 14:33N 35°30' E 139°46'3 2.6
2014-Aug-14 13:34N 35°28' E 139°44'0 0.0
2014-Aug-14 12:33N 35°28' E 139°44'3 3.2
2014-Aug-14 11:33N 35°25' E 139°42'1 1.3
2014-Aug-14 10:33N 35°25' E 139°41'1 0.8
2014-Aug-14 09:33N 35°26' E 139°42'6 5.7
2014-Aug-14 08:33N 35°30' E 139°47'6 5.8
2014-Aug-14 07:33N 35°28' E 139°40'1 0.9
2014-Aug-14 06:33N 35°27' E 139°40'0 0.0
2014-Aug-14 05:33N 35°27' E 139°40'0 0.0
2014-Aug-14 04:33N 35°27' E 139°40'0 0.0
2014-Aug-14 03:33N 35°27' E 139°40'0 0.0
2014-Aug-14 02:34N 35°27' E 139°40'0 0.0
2014-Aug-14 01:33N 35°27' E 139°40'0 0.0
2014-Aug-14 00:33N 35°27' E 139°40'1 1.3
2014-Aug-13 23:34N 35°26' E 139°41'1 0.7
2014-Aug-13 22:33N 35°26' E 139°42'2 1.9
2014-Aug-13 21:33N 35°27' E 139°40'0 0.0
2014-Aug-13 07:13N 35°27' E 139°40'0 0.0
2014-Aug-13 06:33N 35°27' E 139°40'0 0.0
2014-Aug-13 05:33N 35°27' E 139°40'3 3.4
2014-Aug-13 04:33N 35°29' E 139°43'3 3.2
2014-Aug-13 03:34N 35°31' E 139°46'3 3.3
2014-Aug-13 02:33N 35°28' E 139°44'3 3.4
2014-Aug-13 01:34N 35°31' E 139°46'0 0.0
2014-Aug-13 00:33N 35°31' E 139°46'3 2.5
2014-Aug-12 23:33N 35°29' E 139°47'  

Dump ship's entire track history